Time;durP1;ratioP1;P1;durP2;ratioP2;P2;SDS_P1;SDS_P2;PMS_P1;PMS_P2;Temp;Humidity;BMP_temperature;BMP_pressure;BME280_temperature;BME280_humidity;BME280_pressure;Samples;Min_cycle;Max_cycle;Signal;HPM_P1;HPM_P2
2021/12/03 00:00:58;;;;;;;8.30;4.57;;;;;;;5.25;87.99;97752.13;4249555;33;33791;-72
2021/12/03 00:03:27;;;;;;;9.75;4.25;;;;;;;5.73;86.01;97760.84;4249168;33;34310;-73
2021/12/03 00:05:57;;;;;;;7.78;3.70;;;;;;;5.73;85.79;97750.53;4262246;33;34476;-73
2021/12/03 00:08:26;;;;;;;5.65;3.45;;;;;;;5.67;85.11;97752.31;4249973;33;33744;-72
2021/12/03 00:10:57;;;;;;;8.80;4.00;;;;;;;5.40;84.90;97751.06;4249556;33;34711;-73
2021/12/03 00:13:27;;;;;;;5.85;3.25;;;;;;;5.62;84.91;97750.72;4262383;33;35156;-72
2021/12/03 00:15:57;;;;;;;6.37;3.45;;;;;;;5.25;86.60;97743.53;4249033;33;35319;-73
2021/12/03 00:18:25;;;;;;;7.60;3.70;;;;;;;5.31;85.65;97738.28;4262298;33;33603;-72
2021/12/03 00:20:54;;;;;;;9.05;3.42;;;;;;;4.95;87.52;97740.53;4247781;33;33871;-73
2021/12/03 00:23:25;;;;;;;8.95;3.40;;;;;;;5.37;85.32;97758.84;4249511;33;35068;-73
2021/12/03 00:25:54;;;;;;;7.53;3.65;;;;;;;5.52;85.02;97768.06;4262009;33;34598;-72
2021/12/03 00:28:22;;;;;;;6.50;3.58;;;;;;;5.22;86.27;97757.31;4262222;33;33644;-73
2021/12/03 00:30:51;;;;;;;8.80;4.35;;;;;;;4.85;87.36;97765.63;4249328;33;33768;-73
2021/12/03 00:33:19;;;;;;;7.75;3.40;;;;;;;5.31;85.72;97769.25;4249278;33;35839;-73
2021/12/03 00:35:47;;;;;;;6.85;3.53;;;;;;;5.74;83.66;97773.75;4261286;33;34549;-73
2021/12/03 00:38:16;;;;;;;6.62;4.18;;;;;;;5.25;85.76;97782.25;4249373;33;33745;-73
2021/12/03 00:40:44;;;;;;;6.82;3.72;;;;;;;5.64;83.11;97787.69;4260622;33;34719;-73
2021/12/03 00:43:13;;;;;;;7.78;4.30;;;;;;;5.62;84.54;97784.28;4261719;33;35172;-73
2021/12/03 00:45:43;;;;;;;8.20;4.07;;;;;;;5.51;83.75;97782.72;4260313;33;35202;-72
2021/12/03 00:48:11;;;;;;;8.98;4.30;;;;;;;5.65;83.98;97799.72;4262060;33;32786;-72
2021/12/03 00:50:39;;;;;;;6.82;4.03;;;;;;;5.69;83.47;97807.38;4261349;33;34673;-73
2021/12/03 00:53:07;;;;;;;6.22;3.85;;;;;;;5.65;83.90;97810.06;4261320;33;35059;-73
2021/12/03 00:55:35;;;;;;;7.32;3.45;;;;;;;5.74;83.02;97809.06;4260726;33;34525;-73
2021/12/03 00:58:03;;;;;;;8.05;3.67;;;;;;;5.45;84.83;97802.59;4246638;33;33745;-73
2021/12/03 01:00:32;;;;;;;8.02;3.40;;;;;;;5.76;83.06;97802.97;4260537;33;33762;-72
2021/12/03 01:03:01;;;;;;;5.35;3.28;;;;;;;5.41;84.45;97808.69;4262257;33;36026;-73
2021/12/03 01:05:30;;;;;;;7.82;4.37;;;;;;;5.31;85.51;97823.44;4258725;33;34550;-73
2021/12/03 01:07:58;;;;;;;8.35;3.95;;;;;;;5.92;82.23;97824.25;4261830;33;34396;-73
2021/12/03 01:10:29;;;;;;;7.40;4.03;;;;;;;5.93;82.72;97807.00;4261041;33;33874;-73
2021/12/03 01:12:57;;;;;;;7.05;4.05;;;;;;;5.54;83.73;97817.09;4249365;33;35280;-73
2021/12/03 01:15:30;;;;;;;7.82;3.65;;;;;;;5.79;82.93;97812.38;4261001;33;34380;-73
2021/12/03 01:17:58;;;;;;;8.90;4.32;;;;;;;5.85;82.10;97813.16;4248547;33;33647;-73
2021/12/03 01:20:26;;;;;;;9.15;4.75;;;;;;;5.48;84.32;97811.16;4261214;33;34813;-72
2021/12/03 01:22:54;;;;;;;8.25;3.70;;;;;;;6.07;81.08;97813.69;4261760;33;35177;-71
2021/12/03 01:25:24;;;;;;;6.37;4.00;;;;;;;5.77;82.07;97817.62;4248451;33;34485;-72
2021/12/03 01:27:52;;;;;;;7.72;4.25;;;;;;;5.58;82.04;97818.78;4261719;33;33881;-73
2021/12/03 01:30:22;;;;;;;4.87;3.03;;;;;;;5.38;84.34;97816.47;4261045;33;34006;-73
2021/12/03 01:32:57;;;;;;;4.85;2.72;;;;;;;5.76;82.30;97815.88;4261819;33;35073;-73
2021/12/03 01:35:25;;;;;;;7.20;3.80;;;;;;;5.82;81.53;97812.34;4260012;33;34595;-72
2021/12/03 01:37:53;;;;;;;8.55;3.53;;;;;;;5.26;82.91;97818.38;4248946;33;33520;-72
2021/12/03 01:40:24;;;;;;;6.72;3.70;;;;;;;5.35;82.47;97825.12;4248069;33;33935;-72
2021/12/03 01:42:52;;;;;;;7.03;3.33;;;;;;;5.40;82.37;97827.63;4248823;33;35250;-72
2021/12/03 01:45:24;;;;;;;6.10;3.30;;;;;;;5.22;83.82;97833.91;4260042;33;35054;-72
2021/12/03 01:47:53;;;;;;;4.50;2.70;;;;;;;5.00;82.74;97834.19;4248941;33;33769;-72
2021/12/03 01:50:41;;;;;;;6.22;3.10;;;;;;;5.27;81.58;97839.84;4248134;33;34552;-73
2021/12/03 01:53:11;;;;;;;4.57;2.45;;;;;;;5.37;81.61;97846.59;4248912;33;35696;-73
2021/12/03 01:55:39;;;;;;;5.57;3.05;;;;;;;5.55;80.48;97844.63;4248180;33;34640;-72
2021/12/03 01:58:08;;;;;;;8.18;3.80;;;;;;;5.01;81.98;97843.66;4261083;33;33774;-72
2021/12/03 02:00:53;;;;;;;6.75;3.70;;;;;;;5.11;82.36;97845.22;4239596;33;33940;-72
2021/12/03 02:03:24;;;;;;;5.47;3.35;;;;;;;5.35;81.34;97856.09;4247288;33;35066;-72
2021/12/03 02:05:53;;;;;;;6.55;3.85;;;;;;;5.11;82.58;97849.53;4256307;33;34641;-72
2021/12/03 02:08:21;;;;;;;8.15;3.87;;;;;;;5.12;82.82;97865.00;4261136;33;34439;-73
2021/12/03 02:10:50;;;;;;;7.53;4.20;;;;;;;4.84;84.16;97873.94;4260781;33;34671;-73
2021/12/03 02:13:18;;;;;;;7.22;3.60;;;;;;;5.11;83.60;97871.00;4248624;33;35021;-72
2021/12/03 02:15:47;;;;;;;8.82;4.68;;;;;;;5.08;83.75;97855.59;4260712;33;34567;-72
2021/12/03 02:18:16;;;;;;;6.97;3.92;;;;;;;5.42;82.04;97870.62;4248035;33;33638;-73
2021/12/03 02:20:49;;;;;;;10.27;4.57;;;;;;;5.28;82.86;97867.37;4247890;33;35298;-73
2021/12/03 02:23:18;;;;;;;10.15;3.87;;;;;;;5.35;82.07;97873.28;4261637;33;35140;-72
2021/12/03 02:25:47;;;;;;;8.80;5.03;;;;;;;5.55;82.22;97880.78;4260462;33;34573;-73
2021/12/03 02:28:17;;;;;;;8.70;4.82;;;;;;;5.61;82.05;97876.38;4248496;33;33684;-73
2021/12/03 02:30:48;;;;;;;6.53;3.67;;;;;;;4.96;84.41;97881.53;4247958;33;34740;-72
2021/12/03 02:33:16;;;;;;;8.30;3.83;;;;;;;5.07;84.08;97889.16;4261230;33;35146;-72
2021/12/03 02:35:45;;;;;;;6.82;4.05;;;;;;;5.03;83.91;97898.66;4247606;33;34551;-72
2021/12/03 02:38:16;;;;;;;7.32;4.60;;;;;;;4.85;84.35;97904.00;4260479;33;33672;-72
2021/12/03 02:40:45;;;;;;;9.43;4.60;;;;;;;4.92;85.30;97913.37;4248011;33;34758;-72
2021/12/03 02:43:14;;;;;;;11.30;5.37;;;;;;;5.26;83.65;97921.59;4259742;33;34934;-73
2021/12/03 02:45:42;;;;;;;7.70;4.37;;;;;;;5.23;83.17;97921.63;4259413;33;35299;-72
2021/12/03 02:48:10;;;;;;;11.60;5.25;;;;;;;5.31;82.84;97926.69;4261038;33;33899;-73
2021/12/03 02:50:38;;;;;;;9.85;5.68;;;;;;;5.19;83.53;97931.97;4260684;33;33803;-73
2021/12/03 02:53:06;;;;;;;11.02;4.62;;;;;;;5.27;83.50;97937.91;4248275;33;35113;-73
2021/12/03 02:55:34;;;;;;;7.25;4.25;;;;;;;5.22;83.73;97940.53;4260208;33;35279;-72
2021/12/03 02:58:03;;;;;;;11.32;5.45;;;;;;;5.23;83.90;97949.16;4259079;33;34398;-72
2021/12/03 03:00:31;;;;;;;9.48;4.45;;;;;;;5.39;83.64;97953.25;4247435;33;33963;-72
2021/12/03 03:03:00;;;;;;;11.38;5.53;;;;;;;5.44;82.94;97956.63;4260257;33;35263;-73
2021/12/03 03:05:29;;;;;;;9.15;4.70;;;;;;;5.82;81.01;97963.03;4260045;33;34610;-73
2021/12/03 03:07:57;;;;;;;8.02;4.80;;;;;;;5.45;82.41;97966.09;4260819;33;34579;-73
2021/12/03 03:10:29;;;;;;;13.15;6.03;;;;;;;5.95;80.86;97974.03;4259971;33;34851;-72
2021/12/03 03:12:59;;;;;;;9.35;5.15;;;;;;;5.70;81.73;97970.97;4260799;33;35940;-73
2021/12/03 03:15:27;;;;;;;12.05;5.65;;;;;;;5.54;82.86;97977.16;4259899;33;35162;-73
2021/12/03 03:17:56;;;;;;;10.93;5.50;;;;;;;6.06;79.94;97986.84;4247663;33;34533;-73
2021/12/03 03:20:24;;;;;;;11.27;5.80;;;;;;;5.75;81.56;97991.53;4260149;33;33772;-72
2021/12/03 03:22:52;;;;;;;11.75;5.85;;;;;;;5.16;84.28;97984.50;4262584;33;35065;-73
2021/12/03 03:25:20;;;;;;;14.87;6.62;;;;;;;5.53;82.69;97983.22;4248855;33;35353;-73
2021/12/03 03:27:48;;;;;;;11.07;6.93;;;;;;;5.45;84.09;97993.62;4249494;33;33003;-73
2021/12/03 03:30:18;;;;;;;13.55;7.30;;;;;;;5.37;84.10;97993.72;4249036;33;34624;-72
2021/12/03 03:32:48;;;;;;;15.07;7.70;;;;;;;5.06;85.09;98006.94;4262454;33;34943;-73
2021/12/03 03:35:16;;;;;;;14.20;7.30;;;;;;;5.61;83.33;98020.13;4249370;33;33740;-72
2021/12/03 03:37:44;;;;;;;14.87;8.85;;;;;;;5.72;83.56;98018.28;4249681;33;34568;-72
2021/12/03 03:40:15;;;;;;;16.73;8.60;;;;;;;5.38;83.67;98018.66;4261618;33;33983;-72
2021/12/03 03:42:44;;;;;;;21.08;9.77;;;;;;;5.94;82.04;98025.75;4261120;33;35081;-72
2021/12/03 03:45:14;;;;;;;13.60;7.00;;;;;;;5.48;83.34;98034.91;4248689;33;35139;-73
2021/12/03 03:47:42;;;;;;;17.02;9.18;;;;;;;5.40;85.05;98032.41;4259355;33;32798;-72
2021/12/03 03:50:12;;;;;;;21.12;9.98;;;;;;;5.05;85.83;98048.28;4236679;33;33781;-73
2021/12/03 03:52:41;;;;;;;16.98;9.40;;;;;;;5.48;85.00;98045.22;4262332;33;35009;-72
2021/12/03 03:55:10;;;;;;;21.52;10.85;;;;;;;5.35;84.45;98036.78;4248820;33;35297;-73
2021/12/03 03:57:41;;;;;;;21.20;12.40;;;;;;;4.97;86.25;98047.47;4261281;33;33087;-73
2021/12/03 04:00:12;;;;;;;16.42;9.13;;;;;;;5.11;85.64;98046.47;4259061;33;33011;-70
2021/12/03 04:02:41;;;;;;;21.62;10.25;;;;;;;5.00;85.73;98037.97;4261269;33;35245;-73
2021/12/03 04:05:10;;;;;;;18.75;10.52;;;;;;;5.27;84.61;98039.41;4259566;33;34478;-73
2021/12/03 04:07:38;;;;;;;21.08;11.85;;;;;;;4.49;88.26;98051.28;4259976;33;34639;-73
2021/12/03 04:10:08;;;;;;;19.20;11.38;;;;;;;4.89;86.04;98044.97;4259979;33;33919;-73
2021/12/03 04:12:37;;;;;;;17.40;10.27;;;;;;;4.66;87.28;98053.75;4237357;33;34393;-73
2021/12/03 04:15:08;;;;;;;24.02;11.48;;;;;;;5.09;84.50;98063.69;4247976;33;34239;-72
2021/12/03 04:17:36;;;;;;;16.48;9.80;;;;;;;4.80;86.16;98068.25;4258204;33;33623;-72
2021/12/03 04:20:06;;;;;;;18.45;10.57;;;;;;;4.39;88.45;98071.97;4236570;33;34750;-72
2021/12/03 04:22:34;;;;;;;13.55;7.10;;;;;;;4.61;86.85;98081.28;4248921;33;34246;-73
2021/12/03 04:25:04;;;;;;;14.70;9.27;;;;;;;4.64;87.42;98094.16;4248620;33;34197;-72
2021/12/03 04:27:32;;;;;;;18.92;10.95;;;;;;;4.65;87.31;98090.69;4261248;33;34346;-71
2021/12/03 04:30:01;;;;;;;20.25;11.07;;;;;;;4.29;88.39;98091.78;4261466;33;33864;-72
2021/12/03 04:32:29;;;;;;;19.02;10.95;;;;;;;4.37;88.60;98108.06;4261754;33;34944;-71
2021/12/03 04:34:57;;;;;;;17.37;10.70;;;;;;;4.07;89.44;98103.94;4260946;33;34473;-72
2021/12/03 04:37:24;;;;;;;16.98;9.95;;;;;;;4.36;88.59;98108.94;4261214;33;34546;-72
2021/12/03 04:39:53;;;;;;;18.92;10.43;;;;;;;4.59;87.49;98128.56;4248588;33;34039;-72
2021/12/03 04:42:21;;;;;;;19.12;10.25;;;;;;;4.40;86.97;98132.97;4255018;33;36075;-72
2021/12/03 04:44:48;;;;;;;16.33;8.77;;;;;;;4.42;87.39;98131.25;4259117;33;34638;-73
2021/12/03 04:47:17;;;;;;;22.52;11.82;;;;;;;4.44;86.73;98130.34;4261004;33;33068;-71
2021/12/03 04:49:44;;;;;;;23.25;12.10;;;;;;;4.36;87.27;98142.47;4261906;33;34026;-71
2021/12/03 04:52:12;;;;;;;24.73;13.07;;;;;;;4.40;85.80;98153.59;4260689;33;35207;-71
2021/12/03 04:54:42;;;;;;;25.35;13.02;;;;;;;4.18;86.71;98149.41;4261847;33;35392;-72
2021/12/03 04:57:10;;;;;;;23.77;12.68;;;;;;;4.12;87.86;98153.72;4261077;33;33863;-72
2021/12/03 04:59:38;;;;;;;19.00;10.73;;;;;;;4.22;86.99;98159.69;4261234;33;33939;-72
2021/12/03 05:02:06;;;;;;;25.92;11.55;;;;;;;4.16;86.77;98176.03;4260653;33;35495;-72
2021/12/03 05:04:38;;;;;;;25.98;13.13;;;;;;;4.13;87.50;98168.28;4260926;33;34589;-72
2021/12/03 05:09:37;;;;;;;22.90;11.27;;;;;;;3.76;87.54;98176.16;4261704;33;34930;-71
2021/12/03 05:12:06;;;;;;;26.52;12.43;;;;;;;4.12;86.55;98179.47;4248016;33;35925;-73
2021/12/03 05:14:34;;;;;;;22.23;12.37;;;;;;;4.29;85.44;98182.84;4257339;33;34086;-72
2021/12/03 05:17:02;;;;;;;21.23;12.27;;;;;;;4.46;83.94;98185.34;4258455;33;34548;-72
2021/12/03 05:19:30;;;;;;;18.85;10.88;;;;;;;4.03;85.33;98189.81;4260499;33;34680;-72
2021/12/03 05:21:58;;;;;;;18.15;9.98;;;;;;;4.08;85.24;98199.25;4260572;33;35783;-72
2021/12/03 05:24:26;;;;;;;23.20;12.13;;;;;;;4.02;85.03;98203.56;4261507;33;34646;-71
2021/12/03 05:26:54;;;;;;;17.12;8.27;;;;;;;3.61;87.08;98213.91;4260758;33;33761;-73
2021/12/03 05:29:23;;;;;;;19.92;11.90;;;;;;;4.00;85.45;98213.84;4259171;33;33974;-73
2021/12/03 05:31:51;;;;;;;28.45;12.63;;;;;;;3.97;84.39;98219.00;4260459;33;36016;-73
2021/12/03 05:34:28;;;;;;;21.08;12.00;;;;;;;4.24;82.89;98232.69;4248530;33;33809;-73
2021/12/03 05:36:56;;;;;;;24.27;11.52;;;;;;;4.11;82.52;98240.47;4247267;33;33620;-73
2021/12/03 05:39:24;;;;;;;25.20;11.77;;;;;;;3.98;82.94;98244.75;4261621;33;33955;-73
2021/12/03 05:41:52;;;;;;;17.17;8.85;;;;;;;3.88;82.28;98248.25;4259945;33;34740;-72
2021/12/03 05:44:20;;;;;;;21.17;11.43;;;;;;;3.83;81.92;98265.41;4261329;33;34529;-73
2021/12/03 05:46:48;;;;;;;26.17;9.90;;;;;;;3.57;82.73;98284.28;4241172;33;34437;-73
2021/12/03 05:49:16;;;;;;;14.25;8.55;;;;;;;4.01;80.69;98285.13;4261614;33;34729;-73
2021/12/03 05:51:44;;;;;;;18.70;9.88;;;;;;;4.00;79.59;98293.69;4258413;33;35148;-72
2021/12/03 05:54:12;;;;;;;17.23;8.35;;;;;;;4.16;79.05;98297.09;4247607;33;34653;-73
2021/12/03 05:56:40;;;;;;;11.60;6.40;;;;;;;3.91;78.60;98304.03;4259905;33;33850;-73
2021/12/03 05:59:09;;;;;;;15.85;8.63;;;;;;;4.01;77.42;98310.88;4261349;33;33974;-73
2021/12/03 06:01:36;;;;;;;16.48;7.55;;;;;;;3.80;77.51;98322.91;4260842;33;34965;-73
2021/12/03 06:04:05;;;;;;;16.10;8.30;;;;;;;3.80;77.28;98329.78;4261383;33;34471;-73
2021/12/03 06:06:33;;;;;;;16.12;8.18;;;;;;;3.97;76.62;98330.63;4259164;33;33574;-72
2021/12/03 06:09:02;;;;;;;18.00;7.65;;;;;;;3.83;77.63;98329.78;4248468;33;33864;-72
2021/12/03 06:11:31;;;;;;;14.15;7.70;;;;;;;3.76;76.79;98340.94;4221860;33;35363;-73
2021/12/03 06:13:59;;;;;;;13.62;6.78;;;;;;;3.72;76.48;98339.22;4246536;33;35296;-73
2021/12/03 06:16:26;;;;;;;16.02;7.85;;;;;;;3.63;76.85;98344.34;4258377;33;33802;-71
2021/12/03 06:18:55;;;;;;;17.67;8.50;;;;;;;3.82;75.42;98345.22;4261438;33;33897;-71
2021/12/03 06:21:23;;;;;;;13.02;6.55;;;;;;;3.82;76.32;98348.66;4259506;33;35940;-71
2021/12/03 06:23:50;;;;;;;12.00;5.12;;;;;;;3.99;73.92;98353.81;4260261;33;34486;-72
2021/12/03 06:26:19;;;;;;;13.35;6.40;;;;;;;3.78;74.41;98349.53;4258281;33;33721;-70
2021/12/03 06:28:47;;;;;;;13.13;6.30;;;;;;;3.19;76.43;98364.88;4247699;33;34819;-71
2021/12/03 06:31:15;;;;;;;17.83;6.60;;;;;;;3.34;75.56;98368.34;4243078;33;35034;-71
2021/12/03 06:33:43;;;;;;;16.25;6.47;;;;;;;3.17;75.95;98387.13;4247776;33;35068;-72
2021/12/03 06:36:11;;;;;;;9.65;4.65;;;;;;;3.24;76.03;98388.00;4247778;33;33714;-73
2021/12/03 06:38:39;;;;;;;13.20;5.78;;;;;;;3.35;74.28;98395.75;4261071;33;33870;-72
2021/12/03 06:41:07;;;;;;;11.73;5.90;;;;;;;3.09;75.89;98418.81;4260437;33;35060;-71
2021/12/03 06:43:35;;;;;;;13.95;5.60;;;;;;;3.15;75.46;98424.84;4260070;33;34498;-72
2021/12/03 06:46:04;;;;;;;7.20;3.87;;;;;;;3.18;75.35;98435.16;4260053;33;33301;-72
2021/12/03 06:48:32;;;;;;;12.55;5.12;;;;;;;2.98;74.52;98441.91;4248216;33;34840;-72
2021/12/03 06:51:00;;;;;;;7.45;3.75;;;;;;;3.27;74.82;98436.06;4260226;33;35096;-72
2021/12/03 06:53:39;;;;;;;9.77;4.93;;;;;;;3.26;74.30;98436.91;4259078;33;35278;-72
2021/12/03 06:56:09;;;;;;;10.38;4.47;;;;;;;3.47;72.45;98442.12;4261925;33;33694;-72
2021/12/03 06:58:37;;;;;;;18.83;4.80;;;;;;;3.32;73.28;98442.06;4262682;33;33269;-72
2021/12/03 07:01:06;;;;;;;10.57;4.18;;;;;;;3.02;74.16;98453.97;4258467;33;35041;-73
2021/12/03 07:03:39;;;;;;;8.32;3.78;;;;;;;2.91;74.06;98456.47;4260909;33;35098;-72
2021/12/03 07:06:06;;;;;;;6.50;3.25;;;;;;;3.14;73.70;98466.88;4259263;33;34392;-71
2021/12/03 07:08:34;;;;;;;11.85;3.72;;;;;;;3.12;72.32;98465.12;4261496;33;34386;-74
2021/12/03 07:11:02;;;;;;;8.65;2.53;;;;;;;3.38;71.92;98472.97;4261671;33;35042;-74
2021/12/03 07:13:31;;;;;;;8.95;3.45;;;;;;;2.87;73.87;98487.28;4262381;33;34645;-73
2021/12/03 07:16:00;;;;;;;7.28;3.87;;;;;;;3.00;72.86;98481.34;4248346;33;31998;-73
2021/12/03 07:18:28;;;;;;;6.70;2.90;;;;;;;2.84;74.28;98491.56;4237752;33;32414;-74
2021/12/03 07:20:56;;;;;;;4.30;2.62;;;;;;;3.16;72.55;98493.47;4261658;33;35660;-74
2021/12/03 07:23:24;;;;;;;7.90;3.50;;;;;;;3.03;72.96;98501.94;4249381;33;33181;-74
2021/12/03 07:25:53;;;;;;;5.05;2.92;;;;;;;3.29;71.68;98503.81;4260569;33;33625;-74
2021/12/03 07:28:20;;;;;;;6.62;3.10;;;;;;;2.92;72.22;98524.19;4261194;33;33945;-75
2021/12/03 07:30:48;;;;;;;6.07;4.03;;;;;;;3.00;72.41;98530.22;4260328;33;34976;-74
2021/12/03 07:33:18;;;;;;;5.95;2.95;;;;;;;2.93;71.81;98537.06;4249332;33;33984;-74
2021/12/03 07:35:46;;;;;;;6.75;3.37;;;;;;;3.37;70.92;98545.87;4248578;33;32881;-74
2021/12/03 07:38:17;;;;;;;6.35;2.92;;;;;;;3.02;71.91;98559.41;4261625;33;33977;-74
2021/12/03 07:40:46;;;;;;;13.70;3.75;;;;;;;3.32;71.54;98557.84;4261733;33;34913;-73
2021/12/03 07:43:17;;;;;;;5.53;3.37;;;;;;;3.27;71.63;98564.72;4249134;33;35254;-73
2021/12/03 07:45:46;;;;;;;7.70;2.55;;;;;;;3.84;68.87;98576.13;4247433;33;33534;-74
2021/12/03 07:48:14;;;;;;;9.80;3.17;;;;;;;3.75;69.28;98578.66;4249684;33;33841;-74
2021/12/03 07:50:43;;;;;;;7.57;2.72;;;;;;;3.40;70.50;98594.78;4248744;33;35045;-74
2021/12/03 07:53:17;;;;;;;6.82;2.58;;;;;;;3.74;69.30;98587.22;4262413;33;35272;-75
2021/12/03 07:55:47;;;;;;;9.73;3.28;;;;;;;3.88;67.87;98593.34;4260704;33;33711;-75
2021/12/03 07:58:16;;;;;;;7.18;3.33;;;;;;;3.55;69.41;98607.75;4246880;33;33794;-76
2021/12/03 08:00:45;;;;;;;6.57;3.28;;;;;;;4.25;67.13;98603.72;4261538;33;35151;-75
2021/12/03 08:03:17;;;;;;;3.70;2.10;;;;;;;4.16;67.30;98606.28;4249512;33;34625;-74
2021/12/03 08:05:45;;;;;;;4.62;2.42;;;;;;;3.56;67.76;98617.19;4248560;33;33722;-74
2021/12/03 08:08:13;;;;;;;5.07;2.80;;;;;;;4.04;66.75;98611.41;4262332;33;34699;-74
2021/12/03 08:10:42;;;;;;;4.50;2.40;;;;;;;4.64;63.77;98607.28;4261370;33;35056;-75
2021/12/03 08:13:09;;;;;;;4.43;2.70;;;;;;;4.46;64.41;98622.69;4262242;33;35271;-76
2021/12/03 08:15:38;;;;;;;6.40;2.70;;;;;;;4.53;63.93;98619.25;4260750;33;33687;-76
2021/12/03 08:18:06;;;;;;;5.00;2.10;;;;;;;4.64;63.53;98633.06;4262227;33;33969;-75
2021/12/03 08:20:34;;;;;;;5.37;2.67;;;;;;;4.89;63.38;98630.50;4261364;33;35011;-77
2021/12/03 08:23:02;;;;;;;8.18;2.10;;;;;;;4.51;63.80;98641.63;4261062;33;34535;-77
2021/12/03 08:25:31;;;;;;;8.07;3.25;;;;;;;4.30;64.95;98648.41;4261316;33;34465;-77
2021/12/03 08:27:59;;;;;;;4.37;2.22;;;;;;;4.33;64.56;98656.16;4249552;33;34948;-76
2021/12/03 08:30:29;;;;;;;4.07;2.17;;;;;;;4.50;62.00;98652.78;4236565;33;35255;-75
2021/12/03 08:32:58;;;;;;;8.95;2.42;;;;;;;5.04;61.56;98655.44;4261453;33;34914;-75
2021/12/03 08:35:26;;;;;;;4.20;2.47;;;;;;;5.11;59.84;98654.56;4260254;33;33706;-76
2021/12/03 08:37:55;;;;;;;4.90;2.80;;;;;;;5.30;59.18;98665.78;4261022;33;34009;-75
2021/12/03 08:40:23;;;;;;;6.60;2.53;;;;;;;5.29;59.66;98664.03;4260250;33;34948;-76
2021/12/03 08:42:51;;;;;;;6.15;1.60;;;;;;;6.21;56.68;98675.91;4249196;33;34501;-77
2021/12/03 08:45:21;;;;;;;5.53;2.22;;;;;;;6.74;56.15;98684.28;4248184;33;32615;-77
2021/12/03 08:47:53;;;;;;;6.70;2.62;;;;;;;5.73;57.85;98691.53;4249495;33;33794;-75
2021/12/03 08:50:32;;;;;;;4.60;2.50;;;;;;;7.12;54.11;98701.31;4247970;33;35864;-76
2021/12/03 08:55:35;;;;;;;5.82;1.80;;;;;;;7.54;50.75;98704.44;4249090;33;33687;-77
2021/12/03 08:58:04;;;;;;;5.03;2.22;;;;;;;7.27;52.35;98716.75;4260838;33;34719;-77
2021/12/03 09:00:33;;;;;;;5.53;1.90;;;;;;;6.66;53.25;98706.78;4254324;33;35173;-76
2021/12/03 09:03:02;;;;;;;6.57;2.50;;;;;;;5.91;56.86;98725.94;4261271;33;34480;-75
2021/12/03 09:05:36;;;;;;;4.80;2.05;;;;;;;6.51;54.43;98733.56;4260968;33;33289;-75
2021/12/03 09:08:04;;;;;;;6.20;2.90;;;;;;;5.26;56.95;98738.91;4260732;33;34532;-75
2021/12/03 09:10:40;;;;;;;5.87;2.10;;;;;;;6.28;54.60;98744.00;4243307;33;35188;-75
2021/12/03 09:13:08;;;;;;;5.40;2.37;;;;;;;5.98;55.95;98751.81;4248925;33;34402;-74
2021/12/03 09:15:44;;;;;;;4.55;2.28;;;;;;;6.09;54.71;98759.56;4260815;33;33520;-75
2021/12/03 09:18:29;;;;;;;5.55;2.45;;;;;;;5.57;58.00;98775.06;4259968;33;33777;-76
2021/12/03 09:24:12;;;;;;;8.45;2.45;;;;;;;6.01;57.05;98772.47;4248414;33;35219;-76
2021/12/03 09:26:39;;;;;;;6.78;2.30;;;;;;;5.52;57.22;98775.06;4250234;33;33657;-75
2021/12/03 09:29:11;;;;;;;4.30;2.17;;;;;;;5.36;56.03;98774.19;4260943;33;33983;-74
2021/12/03 09:31:44;;;;;;;2.30;1.60;;;;;;;5.94;55.98;98775.06;4260376;33;35011;-75
2021/12/03 09:34:16;;;;;;;6.85;2.62;;;;;;;6.39;54.43;98771.53;4248655;33;33331;-74
2021/12/03 09:36:44;;;;;;;4.47;2.00;;;;;;;6.07;55.97;98766.44;4259654;33;33729;-74
2021/12/03 09:39:17;;;;;;;3.50;2.00;;;;;;;6.83;52.81;98772.25;4261606;33;33859;-75
2021/12/03 09:41:48;;;;;;;5.40;2.55;;;;;;;7.07;52.46;98770.38;4236466;33;33725;-74
2021/12/03 09:44:16;;;;;;;4.32;1.92;;;;;;;7.05;51.68;98785.06;4248513;33;35134;-75
2021/12/03 09:46:45;;;;;;;5.07;2.10;;;;;;;7.31;49.91;98783.16;4247681;33;34439;-75
2021/12/03 09:52:11;;;;;;;6.45;2.17;;;;;;;8.64;46.80;98775.03;4248935;33;35145;-75
2021/12/03 09:54:45;;;;;;;4.90;2.75;;;;;;;8.91;45.04;98776.47;4250742;33;34524;-75
2021/12/03 09:57:18;;;;;;;7.57;2.78;;;;;;;8.85;45.50;98765.28;4247297;33;33016;-75
2021/12/03 10:06:31;;;;;;;6.28;2.05;;;;;;;8.26;46.85;98771.12;4259602;33;35293;-75
2021/12/03 10:16:25;;;;;;;7.93;3.53;;;;;;;8.22;47.76;98805.75;4260467;33;35317;-76
2021/12/03 10:18:55;;;;;;;7.50;2.28;;;;;;;7.92;48.65;98791.34;4260284;33;34440;-74
2021/12/03 10:38:44;;;;;;;7.37;2.85;;;;;;;6.57;51.44;98801.66;4256099;33;34528;-75
2021/12/03 11:11:25;;;;;;;7.90;3.28;;;;;;;5.58;54.96;98825.88;4258615;33;34539;-76
2021/12/03 11:37:03;;;;;;;6.10;2.72;;;;;;;5.07;53.45;98867.03;4259277;33;33673;-74
2021/12/03 12:44:30;;;;;;;8.43;2.90;;;;;;;4.49;56.43;98917.47;4262052;33;33839;-75
2021/12/03 14:41:42;;;;;;;10.15;3.50;;;;;;;3.77;57.90;99027.59;4261322;33;35742;-73
2021/12/03 14:50:05;;;;;;;10.25;2.80;;;;;;;3.80;56.08;99023.34;4248323;33;33790;-73
2021/12/03 14:52:24;;;;;;;9.75;3.62;;;;;;;3.81;56.08;99019.03;4258435;33;34967;-73
2021/12/03 14:54:54;;;;;;;5.75;2.95;;;;;;;3.34;57.36;99035.66;4260570;33;34592;-74
2021/12/03 14:57:45;;;;;;;8.05;2.85;;;;;;;3.22;58.55;99038.91;4259924;33;33695;-73
2021/12/03 15:03:21;;;;;;;6.95;3.12;;;;;;;3.53;56.45;99053.91;4247009;33;35151;-74
2021/12/03 15:28:47;;;;;;;5.85;2.40;;;;;;;2.67;55.90;99080.97;4209906;33;34676;-74
2021/12/03 15:33:40;;;;;;;6.83;3.17;;;;;;;2.39;56.44;99086.47;4251814;33;33934;-74
2021/12/03 15:36:27;;;;;;;5.70;2.47;;;;;;;2.12;57.64;99096.22;4260537;33;35231;-75
2021/12/03 16:04:00;;;;;;;8.27;3.05;;;;;;;1.88;55.18;99100.06;4239040;33;33034;-71
2021/12/03 16:06:38;;;;;;;6.35;2.83;;;;;;;2.19;55.06;99091.25;4241498;33;33859;-72
2021/12/03 16:09:31;;;;;;;6.20;2.70;;;;;;;2.43;53.66;99101.09;4248060;33;35056;-73
2021/12/03 16:17:22;;;;;;;6.60;3.30;;;;;;;1.85;55.27;99126.53;4261067;33;33987;-72
2021/12/03 16:44:53;;;;;;;8.82;2.83;;;;;;;1.84;55.51;99149.63;4260084;33;34483;-73
2021/12/03 16:53:39;;;;;;;5.00;2.33;;;;;;;1.51;56.86;99140.34;4164811;34;34236;-72
2021/12/03 16:56:29;;;;;;;5.57;2.78;;;;;;;1.55;56.72;99151.53;4233822;33;35192;-71
2021/12/03 16:58:59;;;;;;;4.10;2.33;;;;;;;1.31;56.88;99151.00;4262163;33;33665;-72
2021/12/03 17:01:42;;;;;;;5.03;2.08;;;;;;;1.91;55.45;99151.47;4261262;33;34576;-72
2021/12/03 17:21:26;;;;;;;4.15;2.70;;;;;;;1.12;57.90;99151.41;4259090;33;34354;-72
2021/12/03 17:32:03;;;;;;;5.43;3.12;;;;;;;1.14;57.61;99162.56;4261273;33;34424;-72
2021/12/03 17:45:49;;;;;;;4.75;2.60;;;;;;;0.85;59.93;99172.97;4261724;33;33811;-72
2021/12/03 17:58:38;;;;;;;7.93;3.97;;;;;;;1.50;58.40;99195.03;4261747;33;35056;-72
2021/12/03 18:01:20;;;;;;;6.50;4.03;;;;;;;1.13;59.67;99204.44;4261233;33;34418;-72
2021/12/03 18:44:43;;;;;;;12.18;4.45;;;;;;;1.09;60.64;99200.91;4261164;33;34093;-72
2021/12/03 18:52:58;;;;;;;7.35;4.32;;;;;;;1.60;58.39;99193.56;4262393;33;35141;-73
2021/12/03 18:58:06;;;;;;;9.30;4.97;;;;;;;1.16;59.55;99201.94;4262698;33;33595;-73
2021/12/03 19:00:42;;;;;;;7.55;3.62;;;;;;;1.72;57.86;99200.69;4250506;33;33880;-72
2021/12/03 19:08:46;;;;;;;16.48;4.97;;;;;;;1.73;58.33;99197.25;4262665;33;34514;-73
2021/12/03 19:13:55;;;;;;;15.98;4.87;;;;;;;0.85;60.92;99200.31;4250429;33;34960;-74
2021/12/03 19:16:28;;;;;;;12.07;5.05;;;;;;;1.55;59.07;99193.44;4250116;33;34413;-73
2021/12/03 19:18:58;;;;;;;8.10;3.55;;;;;;;1.26;60.24;99195.34;4249973;33;33792;-74
2021/12/03 19:21:32;;;;;;;12.13;4.85;;;;;;;1.48;59.65;99186.44;4250434;33;33911;-74
2021/12/03 19:24:09;;;;;;;7.90;4.60;;;;;;;1.34;59.15;99188.69;4262537;33;34891;-73
2021/12/03 19:26:48;;;;;;;9.55;4.12;;;;;;;1.31;59.77;99189.50;4261802;33;33408;-73
2021/12/03 19:29:19;;;;;;;7.28;3.95;;;;;;;1.84;57.88;99191.53;4262442;33;33738;-73
2021/12/03 19:31:55;;;;;;;6.62;3.95;;;;;;;0.68;61.57;99198.16;4249953;33;33884;-73
2021/12/03 19:34:29;;;;;;;12.57;5.28;;;;;;;1.03;61.08;99199.91;4261178;33;35147;-73
2021/12/03 19:37:05;;;;;;;9.90;5.35;;;;;;;1.20;60.68;99208.91;4250650;33;34525;-74
2021/12/03 19:39:37;;;;;;;15.70;5.60;;;;;;;0.46;62.45;99209.53;4261667;33;34975;-73
2021/12/03 19:42:13;;;;;;;9.05;5.12;;;;;;;1.43;60.01;99218.81;4256662;33;34795;-71
2021/12/03 19:44:52;;;;;;;;;;;;;;;1.35;59.83;99210.94;4261052;33;34774;-71
2021/12/03 19:47:30;;;;;;;11.15;6.03;;;;;;;1.52;59.67;99212.22;4248039;33;34428;-71